sensor_id;sensor_type;location;lat;lon;timestamp;P1;durP1;ratioP1;P2;durP2;ratioP2
3197;SDS011;1611;49.394;11.136;2022-12-07T00:01:19;8.90;;;8.02;;
3197;SDS011;1611;49.394;11.136;2022-12-07T00:03:50;8.88;;;6.75;;
3197;SDS011;1611;49.394;11.136;2022-12-07T00:06:19;8.80;;;7.93;;
3197;SDS011;1611;49.394;11.136;2022-12-07T00:08:46;8.57;;;7.60;;
3197;SDS011;1611;49.394;11.136;2022-12-07T00:11:14;9.95;;;8.60;;
3197;SDS011;1611;49.394;11.136;2022-12-07T00:13:42;10.80;;;8.40;;
3197;SDS011;1611;49.394;11.136;2022-12-07T00:16:10;12.27;;;8.70;;
3197;SDS011;1611;49.394;11.136;2022-12-07T00:18:38;9.55;;;7.82;;
3197;SDS011;1611;49.394;11.136;2022-12-07T00:21:09;8.57;;;7.75;;
3197;SDS011;1611;49.394;11.136;2022-12-07T00:23:37;11.55;;;8.65;;
3197;SDS011;1611;49.394;11.136;2022-12-07T00:26:05;10.98;;;8.07;;
3197;SDS011;1611;49.394;11.136;2022-12-07T00:28:33;9.68;;;8.65;;
3197;SDS011;1611;49.394;11.136;2022-12-07T00:31:01;10.55;;;8.27;;
3197;SDS011;1611;49.394;11.136;2022-12-07T00:33:29;10.20;;;8.43;;
3197;SDS011;1611;49.394;11.136;2022-12-07T00:35:56;11.02;;;8.82;;
3197;SDS011;1611;49.394;11.136;2022-12-07T00:38:27;11.13;;;9.20;;
3197;SDS011;1611;49.394;11.136;2022-12-07T00:40:58;9.60;;;8.43;;
3197;SDS011;1611;49.394;11.136;2022-12-07T00:43:26;9.68;;;8.68;;
3197;SDS011;1611;49.394;11.136;2022-12-07T00:45:54;10.50;;;8.75;;
3197;SDS011;1611;49.394;11.136;2022-12-07T00:48:21;9.00;;;8.07;;
3197;SDS011;1611;49.394;11.136;2022-12-07T00:50:49;12.23;;;10.20;;
3197;SDS011;1611;49.394;11.136;2022-12-07T00:53:16;12.80;;;9.52;;
3197;SDS011;1611;49.394;11.136;2022-12-07T00:55:45;9.98;;;8.95;;
3197;SDS011;1611;49.394;11.136;2022-12-07T00:58:12;10.27;;;8.75;;
3197;SDS011;1611;49.394;11.136;2022-12-07T01:00:40;10.90;;;8.93;;
3197;SDS011;1611;49.394;11.136;2022-12-07T01:03:08;13.68;;;9.68;;
3197;SDS011;1611;49.394;11.136;2022-12-07T01:05:36;9.75;;;8.13;;
3197;SDS011;1611;49.394;11.136;2022-12-07T01:08:03;10.90;;;9.30;;
3197;SDS011;1611;49.394;11.136;2022-12-07T01:10:31;11.15;;;9.20;;
3197;SDS011;1611;49.394;11.136;2022-12-07T01:12:59;15.43;;;9.27;;
3197;SDS011;1611;49.394;11.136;2022-12-07T01:15:26;12.68;;;9.55;;
3197;SDS011;1611;49.394;11.136;2022-12-07T01:17:53;17.90;;;9.27;;
3197;SDS011;1611;49.394;11.136;2022-12-07T01:20:20;15.00;;;10.20;;
3197;SDS011;1611;49.394;11.136;2022-12-07T01:22:47;10.60;;;9.35;;
3197;SDS011;1611;49.394;11.136;2022-12-07T01:25:14;15.38;;;9.80;;
3197;SDS011;1611;49.394;11.136;2022-12-07T01:27:41;11.18;;;9.85;;
3197;SDS011;1611;49.394;11.136;2022-12-07T01:30:11;10.40;;;9.30;;
3197;SDS011;1611;49.394;11.136;2022-12-07T01:32:38;11.25;;;9.13;;
3197;SDS011;1611;49.394;11.136;2022-12-07T01:35:05;9.73;;;8.73;;
3197;SDS011;1611;49.394;11.136;2022-12-07T01:37:33;10.77;;;8.85;;
3197;SDS011;1611;49.394;11.136;2022-12-07T01:40:02;10.02;;;8.65;;
3197;SDS011;1611;49.394;11.136;2022-12-07T01:42:29;9.50;;;8.32;;
3197;SDS011;1611;49.394;11.136;2022-12-07T01:48:02;11.02;;;9.10;;
3197;SDS011;1611;49.394;11.136;2022-12-07T01:50:31;11.23;;;9.05;;
3197;SDS011;1611;49.394;11.136;2022-12-07T01:52:59;13.48;;;9.48;;
3197;SDS011;1611;49.394;11.136;2022-12-07T01:55:27;12.18;;;9.65;;
3197;SDS011;1611;49.394;11.136;2022-12-07T01:57:55;12.93;;;9.80;;
3197;SDS011;1611;49.394;11.136;2022-12-07T02:00:22;11.18;;;9.55;;
3197;SDS011;1611;49.394;11.136;2022-12-07T02:02:53;11.77;;;9.60;;
3197;SDS011;1611;49.394;11.136;2022-12-07T02:05:23;11.35;;;9.38;;
3197;SDS011;1611;49.394;11.136;2022-12-07T02:07:52;11.88;;;9.45;;
3197;SDS011;1611;49.394;11.136;2022-12-07T02:10:22;13.10;;;9.77;;
3197;SDS011;1611;49.394;11.136;2022-12-07T02:12:51;13.27;;;9.80;;
3197;SDS011;1611;49.394;11.136;2022-12-07T02:15:23;15.85;;;10.88;;
3197;SDS011;1611;49.394;11.136;2022-12-07T02:17:57;14.52;;;11.10;;
3197;SDS011;1611;49.394;11.136;2022-12-07T02:20:33;13.85;;;11.35;;
3197;SDS011;1611;49.394;11.136;2022-12-07T02:26:13;14.63;;;11.27;;
3197;SDS011;1611;49.394;11.136;2022-12-07T02:31:51;14.18;;;11.18;;
3197;SDS011;1611;49.394;11.136;2022-12-07T02:34:25;19.63;;;11.63;;
3197;SDS011;1611;49.394;11.136;2022-12-07T02:36:59;14.90;;;10.80;;
3197;SDS011;1611;49.394;11.136;2022-12-07T02:39:32;14.45;;;11.48;;
3197;SDS011;1611;49.394;11.136;2022-12-07T02:42:09;17.75;;;11.07;;
3197;SDS011;1611;49.394;11.136;2022-12-07T02:44:42;15.32;;;10.15;;
3197;SDS011;1611;49.394;11.136;2022-12-07T02:47:12;20.60;;;12.35;;
3197;SDS011;1611;49.394;11.136;2022-12-07T02:49:41;15.32;;;11.82;;
3197;SDS011;1611;49.394;11.136;2022-12-07T02:52:08;16.20;;;11.40;;
3197;SDS011;1611;49.394;11.136;2022-12-07T02:54:35;16.60;;;12.43;;
3197;SDS011;1611;49.394;11.136;2022-12-07T02:57:04;17.65;;;12.80;;
3197;SDS011;1611;49.394;11.136;2022-12-07T02:59:46;18.70;;;12.25;;
3197;SDS011;1611;49.394;11.136;2022-12-07T03:02:24;19.08;;;12.98;;
3197;SDS011;1611;49.394;11.136;2022-12-07T03:04:59;18.40;;;13.48;;
3197;SDS011;1611;49.394;11.136;2022-12-07T03:07:38;15.98;;;11.63;;
3197;SDS011;1611;49.394;11.136;2022-12-07T03:10:14;15.57;;;11.98;;
3197;SDS011;1611;49.394;11.136;2022-12-07T03:12:49;21.23;;;12.77;;
3197;SDS011;1611;49.394;11.136;2022-12-07T03:15:25;16.23;;;11.85;;
3197;SDS011;1611;49.394;11.136;2022-12-07T03:17:55;24.20;;;12.85;;
3197;SDS011;1611;49.394;11.136;2022-12-07T03:20:24;22.13;;;13.90;;
3197;SDS011;1611;49.394;11.136;2022-12-07T03:22:53;16.52;;;12.60;;
3197;SDS011;1611;49.394;11.136;2022-12-07T03:25:20;20.10;;;12.77;;
3197;SDS011;1611;49.394;11.136;2022-12-07T03:27:49;19.48;;;12.40;;
3197;SDS011;1611;49.394;11.136;2022-12-07T03:30:21;19.27;;;13.10;;
3197;SDS011;1611;49.394;11.136;2022-12-07T03:32:52;23.83;;;14.02;;
3197;SDS011;1611;49.394;11.136;2022-12-07T03:35:23;28.33;;;13.95;;
3197;SDS011;1611;49.394;11.136;2022-12-07T03:37:53;18.15;;;12.50;;
3197;SDS011;1611;49.394;11.136;2022-12-07T03:40:24;18.25;;;12.88;;
3197;SDS011;1611;49.394;11.136;2022-12-07T03:42:54;18.27;;;11.95;;
3197;SDS011;1611;49.394;11.136;2022-12-07T03:45:26;20.77;;;14.27;;
3197;SDS011;1611;49.394;11.136;2022-12-07T03:48:02;19.15;;;12.75;;
3197;SDS011;1611;49.394;11.136;2022-12-07T03:50:36;19.40;;;13.38;;
3197;SDS011;1611;49.394;11.136;2022-12-07T03:53:09;18.40;;;13.13;;
3197;SDS011;1611;49.394;11.136;2022-12-07T03:55:41;18.45;;;13.57;;
3197;SDS011;1611;49.394;11.136;2022-12-07T03:58:10;24.90;;;13.80;;
3197;SDS011;1611;49.394;11.136;2022-12-07T04:00:40;23.73;;;14.52;;
3197;SDS011;1611;49.394;11.136;2022-12-07T04:03:09;19.10;;;13.57;;
3197;SDS011;1611;49.394;11.136;2022-12-07T04:05:36;19.88;;;12.80;;
3197;SDS011;1611;49.394;11.136;2022-12-07T04:08:04;19.55;;;13.20;;
3197;SDS011;1611;49.394;11.136;2022-12-07T04:10:31;21.88;;;13.02;;
3197;SDS011;1611;49.394;11.136;2022-12-07T04:12:57;26.83;;;12.95;;
3197;SDS011;1611;49.394;11.136;2022-12-07T04:15:24;21.30;;;13.13;;
3197;SDS011;1611;49.394;11.136;2022-12-07T04:17:51;21.80;;;15.07;;
3197;SDS011;1611;49.394;11.136;2022-12-07T04:20:20;21.92;;;14.30;;
3197;SDS011;1611;49.394;11.136;2022-12-07T04:22:47;20.30;;;13.60;;
3197;SDS011;1611;49.394;11.136;2022-12-07T04:25:13;21.30;;;15.27;;
3197;SDS011;1611;49.394;11.136;2022-12-07T04:27:40;19.75;;;13.35;;
3197;SDS011;1611;49.394;11.136;2022-12-07T04:30:07;22.73;;;13.73;;
3197;SDS011;1611;49.394;11.136;2022-12-07T04:32:35;20.13;;;13.73;;
3197;SDS011;1611;49.394;11.136;2022-12-07T04:35:01;21.70;;;14.20;;
3197;SDS011;1611;49.394;11.136;2022-12-07T04:37:30;21.50;;;13.77;;
3197;SDS011;1611;49.394;11.136;2022-12-07T04:39:57;24.30;;;13.00;;
3197;SDS011;1611;49.394;11.136;2022-12-07T04:42:24;20.73;;;13.57;;
3197;SDS011;1611;49.394;11.136;2022-12-07T04:44:50;23.20;;;14.68;;
3197;SDS011;1611;49.394;11.136;2022-12-07T04:47:17;21.17;;;13.98;;
3197;SDS011;1611;49.394;11.136;2022-12-07T04:49:44;21.80;;;13.98;;
3197;SDS011;1611;49.394;11.136;2022-12-07T04:52:11;26.63;;;14.50;;
3197;SDS011;1611;49.394;11.136;2022-12-07T04:54:39;21.77;;;13.95;;
3197;SDS011;1611;49.394;11.136;2022-12-07T04:57:06;20.95;;;14.05;;
3197;SDS011;1611;49.394;11.136;2022-12-07T04:59:32;18.58;;;13.77;;
3197;SDS011;1611;49.394;11.136;2022-12-07T05:01:59;21.52;;;14.65;;
3197;SDS011;1611;49.394;11.136;2022-12-07T05:04:26;22.27;;;14.05;;
3197;SDS011;1611;49.394;11.136;2022-12-07T05:06:53;25.33;;;14.30;;
3197;SDS011;1611;49.394;11.136;2022-12-07T05:09:20;25.77;;;16.73;;
3197;SDS011;1611;49.394;11.136;2022-12-07T05:11:48;20.08;;;12.77;;
3197;SDS011;1611;49.394;11.136;2022-12-07T05:14:15;20.77;;;14.35;;
3197;SDS011;1611;49.394;11.136;2022-12-07T05:16:44;20.85;;;13.80;;
3197;SDS011;1611;49.394;11.136;2022-12-07T05:19:12;25.35;;;14.02;;
3197;SDS011;1611;49.394;11.136;2022-12-07T05:21:39;23.35;;;13.38;;
3197;SDS011;1611;49.394;11.136;2022-12-07T05:24:06;20.95;;;14.38;;
3197;SDS011;1611;49.394;11.136;2022-12-07T05:26:35;24.55;;;16.20;;
3197;SDS011;1611;49.394;11.136;2022-12-07T05:29:03;22.83;;;14.25;;
3197;SDS011;1611;49.394;11.136;2022-12-07T05:31:31;25.35;;;15.68;;
3197;SDS011;1611;49.394;11.136;2022-12-07T05:33:59;21.83;;;13.40;;
3197;SDS011;1611;49.394;11.136;2022-12-07T05:36:25;22.15;;;13.75;;
3197;SDS011;1611;49.394;11.136;2022-12-07T05:38:53;23.80;;;15.32;;
3197;SDS011;1611;49.394;11.136;2022-12-07T05:41:20;28.65;;;14.77;;
3197;SDS011;1611;49.394;11.136;2022-12-07T05:44:05;29.80;;;16.90;;
3197;SDS011;1611;49.394;11.136;2022-12-07T05:46:32;28.20;;;17.13;;
3197;SDS011;1611;49.394;11.136;2022-12-07T05:49:00;29.17;;;17.80;;
3197;SDS011;1611;49.394;11.136;2022-12-07T05:51:27;26.63;;;17.13;;
3197;SDS011;1611;49.394;11.136;2022-12-07T05:53:54;26.80;;;17.73;;
3197;SDS011;1611;49.394;11.136;2022-12-07T05:56:21;30.05;;;18.02;;
3197;SDS011;1611;49.394;11.136;2022-12-07T05:58:48;21.55;;;15.23;;
3197;SDS011;1611;49.394;11.136;2022-12-07T06:01:34;25.33;;;16.25;;
3197;SDS011;1611;49.394;11.136;2022-12-07T06:04:01;25.67;;;15.10;;
3197;SDS011;1611;49.394;11.136;2022-12-07T06:06:27;24.02;;;16.77;;
3197;SDS011;1611;49.394;11.136;2022-12-07T06:08:54;28.05;;;15.63;;
3197;SDS011;1611;49.394;11.136;2022-12-07T06:11:21;25.42;;;16.58;;
3197;SDS011;1611;49.394;11.136;2022-12-07T06:14:05;29.98;;;17.38;;
3197;SDS011;1611;49.394;11.136;2022-12-07T06:16:33;28.30;;;16.95;;
3197;SDS011;1611;49.394;11.136;2022-12-07T06:19:00;25.95;;;15.23;;
3197;SDS011;1611;49.394;11.136;2022-12-07T06:21:27;28.02;;;17.85;;
3197;SDS011;1611;49.394;11.136;2022-12-07T06:23:54;24.85;;;15.45;;
3197;SDS011;1611;49.394;11.136;2022-12-07T06:26:21;23.48;;;15.55;;
3197;SDS011;1611;49.394;11.136;2022-12-07T06:28:48;25.23;;;16.42;;
3197;SDS011;1611;49.394;11.136;2022-12-07T06:31:15;39.45;;;23.73;;
3197;SDS011;1611;49.394;11.136;2022-12-07T06:33:43;27.05;;;17.15;;
3197;SDS011;1611;49.394;11.136;2022-12-07T06:36:10;23.67;;;16.02;;
3197;SDS011;1611;49.394;11.136;2022-12-07T06:38:37;34.33;;;17.60;;
3197;SDS011;1611;49.394;11.136;2022-12-07T06:41:04;31.50;;;18.17;;
3197;SDS011;1611;49.394;11.136;2022-12-07T06:43:31;28.73;;;17.27;;
3197;SDS011;1611;49.394;11.136;2022-12-07T06:45:58;30.42;;;18.58;;
3197;SDS011;1611;49.394;11.136;2022-12-07T06:48:25;31.83;;;18.60;;
3197;SDS011;1611;49.394;11.136;2022-12-07T06:50:53;30.92;;;18.13;;
3197;SDS011;1611;49.394;11.136;2022-12-07T06:53:20;29.35;;;18.67;;
3197;SDS011;1611;49.394;11.136;2022-12-07T06:55:47;33.20;;;17.42;;
3197;SDS011;1611;49.394;11.136;2022-12-07T06:58:14;30.27;;;18.50;;
3197;SDS011;1611;49.394;11.136;2022-12-07T07:00:41;26.95;;;17.35;;
3197;SDS011;1611;49.394;11.136;2022-12-07T07:03:08;36.58;;;19.08;;
3197;SDS011;1611;49.394;11.136;2022-12-07T07:05:35;34.65;;;19.35;;
3197;SDS011;1611;49.394;11.136;2022-12-07T07:08:03;32.55;;;17.08;;
3197;SDS011;1611;49.394;11.136;2022-12-07T07:10:30;28.85;;;17.83;;
3197;SDS011;1611;49.394;11.136;2022-12-07T07:12:57;29.23;;;18.75;;
3197;SDS011;1611;49.394;11.136;2022-12-07T07:15:24;37.40;;;19.35;;
3197;SDS011;1611;49.394;11.136;2022-12-07T07:17:51;28.20;;;18.98;;
3197;SDS011;1611;49.394;11.136;2022-12-07T07:20:17;31.45;;;18.98;;
3197;SDS011;1611;49.394;11.136;2022-12-07T07:22:44;29.90;;;18.38;;
3197;SDS011;1611;49.394;11.136;2022-12-07T07:25:13;31.92;;;18.15;;
3197;SDS011;1611;49.394;11.136;2022-12-07T07:27:40;36.33;;;18.77;;
3197;SDS011;1611;49.394;11.136;2022-12-07T07:30:07;31.73;;;18.65;;
3197;SDS011;1611;49.394;11.136;2022-12-07T07:32:35;34.00;;;18.20;;
3197;SDS011;1611;49.394;11.136;2022-12-07T07:35:01;32.65;;;18.90;;
3197;SDS011;1611;49.394;11.136;2022-12-07T07:37:29;34.35;;;18.65;;
3197;SDS011;1611;49.394;11.136;2022-12-07T07:39:55;36.50;;;19.98;;
3197;SDS011;1611;49.394;11.136;2022-12-07T07:42:24;39.47;;;21.27;;
3197;SDS011;1611;49.394;11.136;2022-12-07T07:44:50;33.25;;;18.52;;
3197;SDS011;1611;49.394;11.136;2022-12-07T07:47:17;29.02;;;18.20;;
3197;SDS011;1611;49.394;11.136;2022-12-07T07:49:44;35.65;;;19.73;;
3197;SDS011;1611;49.394;11.136;2022-12-07T07:52:11;31.08;;;17.83;;
3197;SDS011;1611;49.394;11.136;2022-12-07T07:54:37;36.50;;;20.02;;
3197;SDS011;1611;49.394;11.136;2022-12-07T07:57:04;34.70;;;19.30;;
3197;SDS011;1611;49.394;11.136;2022-12-07T07:59:32;28.33;;;18.52;;
3197;SDS011;1611;49.394;11.136;2022-12-07T08:01:59;46.70;;;24.38;;
3197;SDS011;1611;49.394;11.136;2022-12-07T08:04:26;70.28;;;37.92;;
3197;SDS011;1611;49.394;11.136;2022-12-07T08:06:52;36.80;;;21.17;;
3197;SDS011;1611;49.394;11.136;2022-12-07T08:09:19;30.20;;;18.05;;
3197;SDS011;1611;49.394;11.136;2022-12-07T08:11:46;36.95;;;19.35;;
3197;SDS011;1611;49.394;11.136;2022-12-07T08:14:13;27.75;;;17.55;;
3197;SDS011;1611;49.394;11.136;2022-12-07T08:16:41;34.92;;;20.02;;
3197;SDS011;1611;49.394;11.136;2022-12-07T08:19:08;30.70;;;18.77;;
3197;SDS011;1611;49.394;11.136;2022-12-07T08:21:34;31.48;;;19.00;;
3197;SDS011;1611;49.394;11.136;2022-12-07T08:24:01;34.20;;;21.45;;
3197;SDS011;1611;49.394;11.136;2022-12-07T08:26:28;34.28;;;19.70;;
3197;SDS011;1611;49.394;11.136;2022-12-07T08:28:55;32.83;;;19.00;;
3197;SDS011;1611;49.394;11.136;2022-12-07T08:31:22;33.70;;;20.67;;
3197;SDS011;1611;49.394;11.136;2022-12-07T08:33:51;37.70;;;19.60;;
3197;SDS011;1611;49.394;11.136;2022-12-07T08:36:18;34.90;;;20.13;;
3197;SDS011;1611;49.394;11.136;2022-12-07T08:38:46;32.00;;;19.08;;
3197;SDS011;1611;49.394;11.136;2022-12-07T08:41:13;35.50;;;20.95;;
3197;SDS011;1611;49.394;11.136;2022-12-07T08:43:40;31.75;;;19.33;;
3197;SDS011;1611;49.394;11.136;2022-12-07T08:46:09;27.58;;;18.48;;
3197;SDS011;1611;49.394;11.136;2022-12-07T08:48:41;32.38;;;19.25;;
3197;SDS011;1611;49.394;11.136;2022-12-07T08:51:14;29.77;;;18.70;;
3197;SDS011;1611;49.394;11.136;2022-12-07T08:53:41;31.40;;;18.80;;
3197;SDS011;1611;49.394;11.136;2022-12-07T08:56:09;27.05;;;17.85;;
3197;SDS011;1611;49.394;11.136;2022-12-07T08:58:35;28.33;;;17.70;;
3197;SDS011;1611;49.394;11.136;2022-12-07T09:01:04;26.70;;;17.52;;
3197;SDS011;1611;49.394;11.136;2022-12-07T09:03:31;26.15;;;17.15;;
3197;SDS011;1611;49.394;11.136;2022-12-07T09:05:58;26.25;;;16.40;;
3197;SDS011;1611;49.394;11.136;2022-12-07T09:08:28;24.90;;;16.02;;
3197;SDS011;1611;49.394;11.136;2022-12-07T09:10:59;27.80;;;16.65;;
3197;SDS011;1611;49.394;11.136;2022-12-07T09:13:27;23.75;;;16.13;;
3197;SDS011;1611;49.394;11.136;2022-12-07T09:15:54;28.48;;;16.52;;
3197;SDS011;1611;49.394;11.136;2022-12-07T09:18:20;23.08;;;15.68;;
3197;SDS011;1611;49.394;11.136;2022-12-07T09:20:47;28.02;;;16.95;;
3197;SDS011;1611;49.394;11.136;2022-12-07T09:23:14;23.73;;;16.02;;
3197;SDS011;1611;49.394;11.136;2022-12-07T09:25:42;27.70;;;17.88;;
3197;SDS011;1611;49.394;11.136;2022-12-07T09:28:09;26.10;;;15.77;;
3197;SDS011;1611;49.394;11.136;2022-12-07T09:30:36;30.63;;;17.23;;
3197;SDS011;1611;49.394;11.136;2022-12-07T09:33:03;22.58;;;15.25;;
3197;SDS011;1611;49.394;11.136;2022-12-07T09:35:30;26.95;;;16.08;;
3197;SDS011;1611;49.394;11.136;2022-12-07T09:37:57;30.00;;;16.48;;
3197;SDS011;1611;49.394;11.136;2022-12-07T09:40:23;24.30;;;16.02;;
3197;SDS011;1611;49.394;11.136;2022-12-07T09:42:52;24.83;;;15.95;;
3197;SDS011;1611;49.394;11.136;2022-12-07T09:45:21;21.95;;;14.75;;
3197;SDS011;1611;49.394;11.136;2022-12-07T09:47:50;22.65;;;14.95;;
3197;SDS011;1611;49.394;11.136;2022-12-07T09:50:19;26.42;;;15.10;;
3197;SDS011;1611;49.394;11.136;2022-12-07T09:52:47;22.90;;;13.15;;
3197;SDS011;1611;49.394;11.136;2022-12-07T09:55:16;23.70;;;15.32;;
3197;SDS011;1611;49.394;11.136;2022-12-07T09:57:49;24.05;;;14.27;;
3197;SDS011;1611;49.394;11.136;2022-12-07T10:00:19;21.65;;;14.60;;
3197;SDS011;1611;49.394;11.136;2022-12-07T10:02:49;22.45;;;13.85;;
3197;SDS011;1611;49.394;11.136;2022-12-07T10:05:22;21.23;;;14.85;;
3197;SDS011;1611;49.394;11.136;2022-12-07T10:07:51;23.30;;;14.40;;
3197;SDS011;1611;49.394;11.136;2022-12-07T10:10:21;24.00;;;14.63;;
3197;SDS011;1611;49.394;11.136;2022-12-07T10:12:58;17.90;;;12.88;;
3197;SDS011;1611;49.394;11.136;2022-12-07T10:15:44;21.55;;;14.40;;
3197;SDS011;1611;49.394;11.136;2022-12-07T10:18:20;20.05;;;12.57;;
3197;SDS011;1611;49.394;11.136;2022-12-07T10:21:01;23.98;;;15.68;;
3197;SDS011;1611;49.394;11.136;2022-12-07T10:23:30;18.25;;;13.23;;
3197;SDS011;1611;49.394;11.136;2022-12-07T10:25:56;20.90;;;13.00;;
3197;SDS011;1611;49.394;11.136;2022-12-07T10:28:27;17.15;;;12.38;;
3197;SDS011;1611;49.394;11.136;2022-12-07T10:31:03;19.25;;;13.95;;
3197;SDS011;1611;49.394;11.136;2022-12-07T10:33:48;21.35;;;14.20;;
3197;SDS011;1611;49.394;11.136;2022-12-07T10:36:16;19.50;;;13.40;;
3197;SDS011;1611;49.394;11.136;2022-12-07T10:38:46;19.25;;;12.93;;
3197;SDS011;1611;49.394;11.136;2022-12-07T10:41:15;23.20;;;14.32;;
3197;SDS011;1611;49.394;11.136;2022-12-07T10:43:52;27.30;;;14.15;;
3197;SDS011;1611;49.394;11.136;2022-12-07T10:49:30;18.75;;;13.07;;
3197;SDS011;1611;49.394;11.136;2022-12-07T10:52:40;18.60;;;13.30;;
3197;SDS011;1611;49.394;11.136;2022-12-07T10:55:21;21.75;;;12.93;;
3197;SDS011;1611;49.394;11.136;2022-12-07T10:57:56;19.75;;;12.13;;
3197;SDS011;1611;49.394;11.136;2022-12-07T11:00:36;16.83;;;11.77;;
3197;SDS011;1611;49.394;11.136;2022-12-07T11:06:06;17.17;;;11.95;;
3197;SDS011;1611;49.394;11.136;2022-12-07T11:08:52;20.30;;;13.50;;
3197;SDS011;1611;49.394;11.136;2022-12-07T11:11:27;73.10;;;41.13;;
3197;SDS011;1611;49.394;11.136;2022-12-07T11:14:03;59.53;;;30.73;;
3197;SDS011;1611;49.394;11.136;2022-12-07T11:16:43;19.80;;;12.15;;
3197;SDS011;1611;49.394;11.136;2022-12-07T11:19:23;17.40;;;12.30;;
3197;SDS011;1611;49.394;11.136;2022-12-07T11:22:00;20.52;;;12.40;;
3197;SDS011;1611;49.394;11.136;2022-12-07T11:24:35;17.90;;;12.18;;
3197;SDS011;1611;49.394;11.136;2022-12-07T11:27:10;18.73;;;12.55;;
3197;SDS011;1611;49.394;11.136;2022-12-07T11:29:50;18.60;;;11.57;;
3197;SDS011;1611;49.394;11.136;2022-12-07T11:32:33;16.92;;;13.00;;
3197;SDS011;1611;49.394;11.136;2022-12-07T11:35:18;19.63;;;12.30;;
3197;SDS011;1611;49.394;11.136;2022-12-07T11:37:51;20.05;;;13.18;;
3197;SDS011;1611;49.394;11.136;2022-12-07T11:40:24;20.40;;;11.52;;
3197;SDS011;1611;49.394;11.136;2022-12-07T11:42:56;17.88;;;12.73;;
3197;SDS011;1611;49.394;11.136;2022-12-07T11:45:26;18.55;;;11.73;;
3197;SDS011;1611;49.394;11.136;2022-12-07T11:47:55;21.08;;;13.07;;
3197;SDS011;1611;49.394;11.136;2022-12-07T11:50:30;18.30;;;12.43;;
3197;SDS011;1611;49.394;11.136;2022-12-07T11:53:01;19.10;;;12.40;;
3197;SDS011;1611;49.394;11.136;2022-12-07T11:55:32;19.15;;;12.68;;
3197;SDS011;1611;49.394;11.136;2022-12-07T11:58:12;17.80;;;12.50;;
3197;SDS011;1611;49.394;11.136;2022-12-07T12:00:47;17.73;;;12.10;;
3197;SDS011;1611;49.394;11.136;2022-12-07T12:03:16;16.25;;;11.13;;
3197;SDS011;1611;49.394;11.136;2022-12-07T12:05:56;14.98;;;11.45;;
3197;SDS011;1611;49.394;11.136;2022-12-07T12:08:24;18.73;;;11.27;;
3197;SDS011;1611;49.394;11.136;2022-12-07T12:10:55;17.58;;;12.38;;
3197;SDS011;1611;49.394;11.136;2022-12-07T12:13:36;17.70;;;12.02;;
3197;SDS011;1611;49.394;11.136;2022-12-07T12:16:29;19.77;;;13.13;;
3197;SDS011;1611;49.394;11.136;2022-12-07T12:19:17;19.65;;;12.35;;
3197;SDS011;1611;49.394;11.136;2022-12-07T12:21:57;18.83;;;12.45;;
3197;SDS011;1611;49.394;11.136;2022-12-07T12:24:31;16.63;;;11.48;;
3197;SDS011;1611;49.394;11.136;2022-12-07T12:27:02;18.00;;;12.18;;
3197;SDS011;1611;49.394;11.136;2022-12-07T12:29:32;15.52;;;11.07;;
3197;SDS011;1611;49.394;11.136;2022-12-07T12:32:06;18.90;;;12.10;;
3197;SDS011;1611;49.394;11.136;2022-12-07T12:34:40;18.45;;;13.13;;
3197;SDS011;1611;49.394;11.136;2022-12-07T12:37:40;20.05;;;12.90;;
3197;SDS011;1611;49.394;11.136;2022-12-07T12:43:26;18.42;;;11.88;;
3197;SDS011;1611;49.394;11.136;2022-12-07T12:55:26;16.40;;;11.45;;
3197;SDS011;1611;49.394;11.136;2022-12-07T12:58:30;15.35;;;10.90;;
3197;SDS011;1611;49.394;11.136;2022-12-07T13:10:21;17.35;;;11.10;;
3197;SDS011;1611;49.394;11.136;2022-12-07T13:13:02;16.98;;;11.90;;
3197;SDS011;1611;49.394;11.136;2022-12-07T13:15:31;16.35;;;10.93;;
3197;SDS011;1611;49.394;11.136;2022-12-07T13:18:04;20.40;;;11.50;;
3197;SDS011;1611;49.394;11.136;2022-12-07T13:20:50;13.20;;;10.55;;
3197;SDS011;1611;49.394;11.136;2022-12-07T13:23:20;15.77;;;11.45;;
3197;SDS011;1611;49.394;11.136;2022-12-07T13:25:56;16.25;;;11.32;;
3197;SDS011;1611;49.394;11.136;2022-12-07T13:28:41;16.95;;;11.30;;
3197;SDS011;1611;49.394;11.136;2022-12-07T13:31:19;20.10;;;12.70;;
3197;SDS011;1611;49.394;11.136;2022-12-07T13:33:56;19.83;;;13.00;;
3197;SDS011;1611;49.394;11.136;2022-12-07T13:36:24;18.88;;;11.55;;
3197;SDS011;1611;49.394;11.136;2022-12-07T13:38:53;17.50;;;11.20;;
3197;SDS011;1611;49.394;11.136;2022-12-07T13:41:23;19.60;;;12.77;;
3197;SDS011;1611;49.394;11.136;2022-12-07T13:43:53;19.50;;;11.50;;
3197;SDS011;1611;49.394;11.136;2022-12-07T13:46:29;15.75;;;11.60;;
3197;SDS011;1611;49.394;11.136;2022-12-07T13:49:01;17.80;;;11.77;;
3197;SDS011;1611;49.394;11.136;2022-12-07T13:51:28;19.10;;;11.95;;
3197;SDS011;1611;49.394;11.136;2022-12-07T13:54:01;19.23;;;12.48;;
3197;SDS011;1611;49.394;11.136;2022-12-07T13:56:37;19.45;;;12.43;;
3197;SDS011;1611;49.394;11.136;2022-12-07T13:59:04;21.48;;;13.00;;
3197;SDS011;1611;49.394;11.136;2022-12-07T14:01:37;19.38;;;12.48;;
3197;SDS011;1611;49.394;11.136;2022-12-07T14:04:24;20.05;;;14.02;;
3197;SDS011;1611;49.394;11.136;2022-12-07T14:06:57;24.02;;;14.55;;
3197;SDS011;1611;49.394;11.136;2022-12-07T14:09:26;29.25;;;14.35;;
3197;SDS011;1611;49.394;11.136;2022-12-07T14:11:56;19.67;;;13.88;;
3197;SDS011;1611;49.394;11.136;2022-12-07T14:14:24;22.10;;;14.48;;
3197;SDS011;1611;49.394;11.136;2022-12-07T14:16:55;24.65;;;15.00;;
3197;SDS011;1611;49.394;11.136;2022-12-07T14:19:40;21.60;;;14.20;;
3197;SDS011;1611;49.394;11.136;2022-12-07T14:22:17;24.63;;;15.07;;
3197;SDS011;1611;49.394;11.136;2022-12-07T14:24:58;24.65;;;14.95;;
3197;SDS011;1611;49.394;11.136;2022-12-07T14:27:48;21.23;;;13.82;;
3197;SDS011;1611;49.394;11.136;2022-12-07T14:30:18;24.02;;;13.43;;
3197;SDS011;1611;49.394;11.136;2022-12-07T14:32:45;20.17;;;13.68;;
3197;SDS011;1611;49.394;11.136;2022-12-07T14:35:16;17.55;;;12.50;;
3197;SDS011;1611;49.394;11.136;2022-12-07T14:37:44;21.00;;;13.13;;
3197;SDS011;1611;49.394;11.136;2022-12-07T14:40:13;23.45;;;14.10;;
3197;SDS011;1611;49.394;11.136;2022-12-07T14:42:41;26.52;;;13.15;;
3197;SDS011;1611;49.394;11.136;2022-12-07T14:45:14;25.67;;;14.77;;
3197;SDS011;1611;49.394;11.136;2022-12-07T14:47:42;27.92;;;15.00;;
3197;SDS011;1611;49.394;11.136;2022-12-07T14:50:11;21.98;;;13.95;;
3197;SDS011;1611;49.394;11.136;2022-12-07T14:52:39;20.73;;;13.32;;
3197;SDS011;1611;49.394;11.136;2022-12-07T14:55:11;19.40;;;12.95;;
3197;SDS011;1611;49.394;11.136;2022-12-07T14:57:40;21.98;;;13.68;;
3197;SDS011;1611;49.394;11.136;2022-12-07T15:00:09;20.95;;;13.20;;
3197;SDS011;1611;49.394;11.136;2022-12-07T15:02:42;18.63;;;12.75;;
3197;SDS011;1611;49.394;11.136;2022-12-07T15:05:09;18.50;;;11.70;;
3197;SDS011;1611;49.394;11.136;2022-12-07T15:08:14;19.00;;;12.95;;
3197;SDS011;1611;49.394;11.136;2022-12-07T15:10:41;21.45;;;14.02;;
3197;SDS011;1611;49.394;11.136;2022-12-07T15:13:08;22.48;;;13.77;;
3197;SDS011;1611;49.394;11.136;2022-12-07T15:15:54;22.52;;;14.13;;
3197;SDS011;1611;49.394;11.136;2022-12-07T15:18:21;22.30;;;12.93;;
3197;SDS011;1611;49.394;11.136;2022-12-07T15:20:49;24.67;;;14.15;;
3197;SDS011;1611;49.394;11.136;2022-12-07T15:23:17;24.50;;;14.50;;
3197;SDS011;1611;49.394;11.136;2022-12-07T15:25:44;18.45;;;13.65;;
3197;SDS011;1611;49.394;11.136;2022-12-07T15:28:12;23.65;;;13.20;;
3197;SDS011;1611;49.394;11.136;2022-12-07T15:30:40;26.30;;;14.30;;
3197;SDS011;1611;49.394;11.136;2022-12-07T15:33:10;17.88;;;13.00;;